Time;durP1;ratioP1;P1;durP2;ratioP2;P2;SDS_P1;SDS_P2;PMS_P1;PMS_P2;Temp;Humidity;BMP_temperature;BMP_pressure;BME280_temperature;BME280_humidity;BME280_pressure;Samples;Min_cycle;Max_cycle;Signal;HPM_P1;HPM_P2
2021/12/13 00:02:23;;;;;;;2.70;1.50;;;;;;;2.50;91.02;96667.66;4839093;29;20526;-59
2021/12/13 00:04:56;;;;;;;3.20;1.80;;;;;;;2.42;91.75;96670.03;4837118;29;20053;-59
2021/12/13 00:07:30;;;;;;;2.40;1.30;;;;;;;2.34;93.42;96674.81;4838911;29;20046;-59
2021/12/13 00:09:59;;;;;;;2.90;1.33;;;;;;;2.36;92.97;96677.22;4840984;29;20145;-60
2021/12/13 00:12:39;;;;;;;2.35;1.45;;;;;;;1.98;97.15;96687.19;4840136;29;20062;-60
2021/12/13 00:15:12;;;;;;;4.38;1.70;;;;;;;1.94;97.33;96670.06;4833698;29;20038;-59
2021/12/13 00:17:47;;;;;;;3.58;1.45;;;;;;;2.31;95.00;96680.69;4850999;29;20092;-58
2021/12/13 00:20:30;;;;;;;4.05;1.45;;;;;;;2.31;95.63;96685.22;4840189;29;20050;-62
2021/12/13 00:23:01;;;;;;;2.50;1.38;;;;;;;2.46;93.41;96677.25;4839348;29;20050;-60
2021/12/13 00:25:30;;;;;;;3.80;1.70;;;;;;;2.59;92.64;96678.63;4837441;29;20502;-58
2021/12/13 00:28:10;;;;;;;2.92;1.60;;;;;;;2.34;94.71;96666.00;4840006;29;20106;-62
2021/12/13 00:30:47;;;;;;;3.15;1.48;;;;;;;2.16;96.62;96671.78;4835866;29;20042;-59
2021/12/13 00:33:36;;;;;;;2.45;1.50;;;;;;;2.36;95.05;96668.41;4833023;29;20125;-58
2021/12/13 00:36:25;;;;;;;3.90;2.25;;;;;;;2.45;95.08;96669.50;4836419;29;20046;-59
2021/12/13 00:38:59;;;;;;;3.67;1.50;;;;;;;2.74;93.28;96667.19;4838822;29;20082;-59
2021/12/13 00:41:30;;;;;;;5.05;1.60;;;;;;;2.61;95.40;96670.34;4834910;29;20065;-60
2021/12/13 00:44:09;;;;;;;2.45;1.40;;;;;;;2.53;95.65;96677.78;4838010;29;20050;-59
2021/12/13 00:46:38;;;;;;;3.78;1.60;;;;;;;2.58;95.38;96680.50;4838008;29;20394;-59
2021/12/13 00:49:09;;;;;;;3.05;1.55;;;;;;;2.10;98.77;96681.63;4838214;29;20056;-59
2021/12/13 00:51:43;;;;;;;2.42;1.20;;;;;;;2.37;96.14;96684.16;4839323;29;20073;-56
2021/12/13 00:54:17;;;;;;;2.85;1.30;;;;;;;2.56;95.30;96682.63;4829070;29;20124;-59
2021/12/13 00:57:07;;;;;;;2.40;1.40;;;;;;;2.61;95.81;96683.72;4842121;29;20103;-58
2021/12/13 00:59:57;;;;;;;2.58;1.40;;;;;;;2.51;96.75;96679.16;4843034;29;20053;-58
2021/12/13 01:02:29;;;;;;;2.35;1.25;;;;;;;2.58;95.97;96685.84;4841845;29;20046;-58
2021/12/13 01:05:08;;;;;;;2.30;1.35;;;;;;;2.74;95.73;96688.56;4838507;29;20061;-56
2021/12/13 01:08:09;;;;;;;2.72;1.40;;;;;;;2.50;98.11;96686.38;4844177;29;20054;-58
2021/12/13 01:10:42;;;;;;;3.75;1.40;;;;;;;2.65;96.40;96688.25;4834551;29;20039;-59
2021/12/13 01:13:14;;;;;;;3.13;1.40;;;;;;;2.70;95.77;96698.19;4835821;29;20133;-55
2021/12/13 01:15:58;;;;;;;1.70;1.17;;;;;;;2.74;96.88;96693.91;4836895;29;20050;-55
2021/12/13 01:18:55;;;;;;;2.65;1.35;;;;;;;2.77;95.41;96701.41;4842259;29;20046;-51
2021/12/13 01:21:33;;;;;;;1.75;1.10;;;;;;;2.52;99.11;96697.56;4838394;29;20416;-52
2021/12/13 01:24:11;;;;;;;2.42;1.30;;;;;;;2.45;97.54;96704.22;4838420;29;20152;-59
2021/12/13 01:26:46;;;;;;;4.00;1.60;;;;;;;2.55;97.90;96697.03;4840101;29;20138;-57
2021/12/13 01:29:20;;;;;;;2.75;1.40;;;;;;;2.71;96.63;96705.13;4836426;29;20421;-60
2021/12/13 01:31:52;;;;;;;2.83;1.30;;;;;;;2.77;96.36;96701.41;4842291;29;20042;-59
2021/12/13 01:34:22;;;;;;;3.20;1.70;;;;;;;2.89;97.08;96706.50;4839944;29;20121;-60
2021/12/13 01:37:17;;;;;;;2.15;1.20;;;;;;;2.35;100.00;96710.34;4841960;29;20060;-56
2021/12/13 01:39:47;;;;;;;2.22;1.10;;;;;;;2.33;100.00;96707.09;4841308;29;20462;-55
2021/12/13 01:42:17;;;;;;;3.03;1.35;;;;;;;2.51;99.15;96709.31;4836165;29;20043;-52
2021/12/13 01:44:50;;;;;;;3.00;1.30;;;;;;;2.49;99.29;96716.78;4838753;29;20448;-56
2021/12/13 01:47:24;;;;;;;2.40;1.20;;;;;;;2.56;100.00;96714.66;4835217;29;20452;-54
2021/12/13 01:50:01;;;;;;;3.28;1.50;;;;;;;2.56;98.87;96701.31;4841618;29;20501;-59
2021/12/13 01:52:33;;;;;;;3.72;1.27;;;;;;;2.53;98.55;96715.19;4841540;29;20058;-59
2021/12/13 01:55:11;;;;;;;3.72;1.30;;;;;;;2.42;100.00;96718.09;4839170;29;20141;-60
2021/12/13 01:58:07;;;;;;;2.78;1.30;;;;;;;2.51;100.00;96703.97;4840971;29;20042;-60
2021/12/13 02:01:08;;;;;;;1.83;1.13;;;;;;;2.67;97.70;96709.38;4832586;29;20098;-60
2021/12/13 02:03:22;;;;;;;1.85;1.10;;;;;;;2.72;97.64;96712.84;4842495;29;20069;-60
2021/12/13 02:05:50;;;;;;;2.30;1.30;;;;;;;2.40;100.00;96704.19;4832883;29;20129;-60
2021/12/13 02:08:21;;;;;;;2.95;1.30;;;;;;;2.59;100.00;96708.00;4840568;29;20135;-59
2021/12/13 02:10:52;;;;;;;2.53;1.27;;;;;;;2.58;98.32;96712.56;4842390;29;20422;-60
2021/12/13 02:13:25;;;;;;;2.70;1.63;;;;;;;2.63;98.63;96705.63;4836464;29;20496;-60
2021/12/13 02:18:45;;;;;;;3.60;1.42;;;;;;;2.26;100.00;96710.00;4833068;29;20133;-59
2021/12/13 02:21:27;;;;;;;2.97;1.73;;;;;;;2.34;100.00;96712.19;4840910;29;20065;-60
2021/12/13 02:24:08;;;;;;;2.38;1.40;;;;;;;2.76;99.81;96705.13;4839452;29;20053;-59
2021/12/13 02:26:38;;;;;;;2.72;1.67;;;;;;;2.70;99.50;96711.53;4841669;29;20046;-60
2021/12/13 02:29:16;;;;;;;2.63;1.60;;;;;;;2.68;100.00;96713.66;4839555;29;20057;-60
2021/12/13 02:31:44;;;;;;;3.22;1.88;;;;;;;2.79;98.71;96716.13;4837830;29;20473;-60
2021/12/13 02:34:15;;;;;;;3.35;1.77;;;;;;;2.68;98.86;96705.66;4837539;29;20111;-59
2021/12/13 02:36:50;;;;;;;2.83;1.77;;;;;;;2.10;100.00;96692.31;4856487;24;20635;-51
2021/12/13 02:39:26;;;;;;;2.97;1.70;;;;;;;2.77;100.00;96714.75;4852069;29;20050;-52
2021/12/13 02:41:53;;;;;;;2.30;1.48;;;;;;;2.66;99.21;96705.88;4858275;29;20056;-54
2021/12/13 02:44:24;;;;;;;3.20;1.60;;;;;;;2.47;100.00;96718.94;4860008;29;20050;-53
2021/12/13 02:46:58;;;;;;;2.28;1.40;;;;;;;2.63;100.00;96719.78;4828587;29;20052;-52
2021/12/13 02:49:25;;;;;;;3.13;2.00;;;;;;;2.98;98.38;96719.06;4837475;29;20041;-52
2021/12/13 02:52:04;;;;;;;3.22;1.85;;;;;;;2.87;99.09;96722.00;4840869;29;20141;-53
2021/12/13 02:54:39;;;;;;;3.30;2.08;;;;;;;3.06;97.61;96719.66;4834610;29;20436;-51
2021/12/13 02:57:15;;;;;;;2.60;1.70;;;;;;;2.84;98.31;96717.97;4837395;29;20129;-51
2021/12/13 02:59:47;;;;;;;3.03;1.58;;;;;;;2.86;99.21;96715.88;4837844;29;20114;-53
2021/12/13 03:02:33;;;;;;;2.63;1.67;;;;;;;2.61;99.70;96721.13;4839916;29;20068;-50
2021/12/13 03:05:03;;;;;;;3.20;1.77;;;;;;;2.44;100.00;96716.78;4836923;29;20053;-49
2021/12/13 03:07:37;;;;;;;2.55;1.52;;;;;;;2.91;99.67;96723.88;4840901;29;20511;-51
2021/12/13 03:10:10;;;;;;;2.30;1.77;;;;;;;3.00;98.30;96724.97;4830651;29;20046;-52
2021/12/13 03:12:38;;;;;;;2.72;1.70;;;;;;;2.88;98.43;96726.28;4833482;29;20046;-53
2021/12/13 03:15:13;;;;;;;4.53;2.00;;;;;;;2.95;98.12;96722.28;4838592;29;20073;-52
2021/12/13 03:17:47;;;;;;;2.45;1.52;;;;;;;3.00;97.61;96716.16;4835778;29;20487;-53
2021/12/13 03:20:25;;;;;;;3.50;1.90;;;;;;;3.07;97.48;96724.72;4838527;29;20118;-52
2021/12/13 03:23:17;;;;;;;3.13;2.42;;;;;;;2.47;100.00;96726.13;4840455;29;20145;-50
2021/12/13 03:26:02;;;;;;;2.78;1.60;;;;;;;2.57;100.00;96718.97;4830473;29;20137;-50
2021/12/13 03:28:56;;;;;;;2.33;1.50;;;;;;;2.53;100.00;96717.88;4838719;29;20042;-50
2021/12/13 03:31:26;;;;;;;2.53;1.58;;;;;;;2.36;100.00;96725.28;4834080;29;20064;-51
2021/12/13 03:33:56;;;;;;;3.40;1.70;;;;;;;2.75;100.00;96720.34;4832961;29;20050;-52
2021/12/13 03:36:35;;;;;;;3.47;1.92;;;;;;;2.98;100.00;96721.75;4832850;29;20128;-50
2021/12/13 03:39:05;;;;;;;2.97;1.70;;;;;;;2.75;99.73;96714.22;4833614;29;20140;-49
2021/12/13 03:41:35;;;;;;;3.55;1.67;;;;;;;2.76;99.98;96719.31;4831985;29;20389;-54
2021/12/13 03:44:08;;;;;;;3.47;1.88;;;;;;;2.64;100.00;96710.72;4837821;29;20046;-49
2021/12/13 03:46:36;;;;;;;3.05;1.80;;;;;;;2.73;100.00;96709.16;4836851;29;20709;-48
2021/12/13 03:49:06;;;;;;;2.75;1.88;;;;;;;3.31;97.99;96703.63;4839227;29;20137;-51
2021/12/13 03:51:36;;;;;;;2.72;1.85;;;;;;;2.85;100.00;96714.25;4839302;29;20056;-51
2021/12/13 03:54:06;;;;;;;2.50;1.38;;;;;;;2.72;100.00;96714.72;4838308;29;20045;-52
2021/12/13 03:56:37;;;;;;;3.47;1.45;;;;;;;2.86;100.00;96713.19;4828814;29;20167;-51
2021/12/13 03:59:13;;;;;;;2.33;1.55;;;;;;;3.20;99.36;96723.41;4838912;29;20057;-54
2021/12/13 04:01:52;;;;;;;3.58;2.05;;;;;;;2.85;100.00;96716.91;4838893;29;20132;-50
2021/12/13 04:04:33;;;;;;;3.83;1.80;;;;;;;2.96;100.00;96723.91;4833833;29;20133;-50
2021/12/13 04:07:08;;;;;;;2.80;1.60;;;;;;;3.24;100.00;96716.44;4839953;29;20132;-54
2021/12/13 04:09:35;;;;;;;2.50;1.42;;;;;;;2.88;100.00;96723.59;4839437;29;20133;-50
2021/12/13 04:12:06;;;;;;;2.75;1.70;;;;;;;2.80;100.00;96720.38;4833836;29;20078;-52
2021/12/13 04:14:38;;;;;;;2.95;1.80;;;;;;;2.54;100.00;96722.16;4827164;29;20046;-51
2021/12/13 04:17:36;;;;;;;3.70;1.90;;;;;;;2.92;100.00;96728.16;4837357;29;20120;-51
2021/12/13 04:20:08;;;;;;;2.72;1.67;;;;;;;3.29;100.00;96727.16;4838948;29;20496;-51
2021/12/13 04:22:39;;;;;;;3.60;2.03;;;;;;;2.93;100.00;96729.78;4839125;29;20611;-52
2021/12/13 04:25:19;;;;;;;2.58;1.83;;;;;;;2.87;100.00;96735.38;4838434;29;20064;-50
2021/12/13 04:27:57;;;;;;;3.53;1.75;;;;;;;3.33;99.73;96728.22;4828465;29;20470;-54
2021/12/13 04:30:33;;;;;;;3.03;1.85;;;;;;;2.65;100.00;96732.88;4838107;29;20053;-51
2021/12/13 04:33:06;;;;;;;3.00;2.00;;;;;;;2.81;100.00;96732.66;4840257;29;20053;-51
2021/12/13 04:35:36;;;;;;;4.63;2.42;;;;;;;2.74;100.00;96732.13;4838366;29;20049;-50
2021/12/13 04:38:07;;;;;;;2.95;2.03;;;;;;;2.99;100.00;96743.94;4842629;29;20046;-54
2021/12/13 04:40:39;;;;;;;3.15;2.10;;;;;;;2.73;100.00;96741.22;4841776;29;20046;-50
2021/12/13 04:43:11;;;;;;;3.65;2.17;;;;;;;2.90;100.00;96741.00;4825757;29;20081;-51
2021/12/13 04:45:41;;;;;;;3.67;2.50;;;;;;;2.89;100.00;96739.38;4841291;29;20129;-50
2021/12/13 04:48:17;;;;;;;3.20;2.10;;;;;;;3.10;100.00;96752.81;4841097;29;20419;-53
2021/12/13 04:50:44;;;;;;;3.72;2.33;;;;;;;3.14;100.00;96751.19;4840965;29;20069;-50
2021/12/13 04:53:22;;;;;;;4.47;2.50;;;;;;;3.15;100.00;96752.78;4842702;29;20472;-51
2021/12/13 04:55:51;;;;;;;3.72;2.33;;;;;;;3.15;100.00;96744.78;4838518;29;20054;-54
2021/12/13 04:58:19;;;;;;;4.88;2.22;;;;;;;3.31;100.00;96749.09;4841930;29;20042;-51
2021/12/13 05:00:53;;;;;;;3.65;2.40;;;;;;;3.18;100.00;96758.41;4841831;29;20046;-50
2021/12/13 05:03:25;;;;;;;3.72;2.47;;;;;;;3.15;100.00;96755.47;4840878;29;20053;-49
2021/12/13 05:05:52;;;;;;;6.05;2.90;;;;;;;2.89;100.00;96755.41;4840861;29;20063;-52
2021/12/13 05:08:21;;;;;;;5.45;2.70;;;;;;;3.03;100.00;96756.53;4841948;29;20046;-53
2021/12/13 05:10:50;;;;;;;4.60;3.10;;;;;;;3.20;100.00;96756.28;4841486;29;20100;-51
2021/12/13 05:13:22;;;;;;;6.95;3.30;;;;;;;3.39;100.00;96755.81;4840956;29;20072;-53
2021/12/13 05:15:58;;;;;;;4.55;2.75;;;;;;;3.42;100.00;96756.06;4838323;29;20050;-52
2021/12/13 05:18:32;;;;;;;4.22;2.85;;;;;;;3.80;99.10;96759.28;4828425;29;20046;-51
2021/12/13 05:21:08;;;;;;;5.55;3.47;;;;;;;3.47;99.92;96766.75;4830880;29;20049;-52
2021/12/13 05:23:47;;;;;;;5.57;3.13;;;;;;;3.40;100.00;96766.22;4842273;29;20046;-51
2021/12/13 05:26:31;;;;;;;4.60;3.08;;;;;;;3.60;100.00;96761.97;4841462;29;20046;-52
2021/12/13 05:29:01;;;;;;;4.75;2.90;;;;;;;3.40;100.00;96771.56;4841798;29;20056;-50
2021/12/13 05:31:30;;;;;;;4.60;3.13;;;;;;;3.28;100.00;96769.16;4842086;29;20136;-50
2021/12/13 05:34:04;;;;;;;4.70;3.40;;;;;;;3.39;100.00;96769.97;4838974;29;20548;-51
2021/12/13 05:36:34;;;;;;;6.82;3.20;;;;;;;3.43;100.00;96771.03;4838422;29;20136;-50
2021/12/13 05:39:19;;;;;;;6.55;3.47;;;;;;;3.30;100.00;96774.22;4841156;29;20107;-50
2021/12/13 05:41:57;;;;;;;5.68;3.80;;;;;;;3.21;100.00;96773.94;4841485;29;20125;-52
2021/12/13 05:44:32;;;;;;;5.95;3.60;;;;;;;3.30;100.00;96770.75;4840585;29;20541;-53
2021/12/13 05:47:04;;;;;;;6.28;4.30;;;;;;;3.24;100.00;96768.06;4827983;29;20118;-52
2021/12/13 05:49:41;;;;;;;6.68;4.30;;;;;;;3.25;100.00;96769.69;4841525;29;20440;-54
2021/12/13 05:52:16;;;;;;;6.47;4.20;;;;;;;3.57;100.00;96759.81;4837401;29;20349;-56
2021/12/13 05:54:47;;;;;;;6.43;4.40;;;;;;;3.41;100.00;96767.84;4840383;29;20057;-54
2021/12/13 05:57:22;;;;;;;6.43;4.15;;;;;;;3.45;100.00;96768.91;4838787;29;20481;-55
2021/12/13 06:00:11;;;;;;;7.03;5.07;;;;;;;3.41;100.00;96761.66;4839642;29;20069;-54
2021/12/13 06:02:57;;;;;;;7.50;5.00;;;;;;;3.41;100.00;96767.00;4838370;29;20454;-53
2021/12/13 06:05:36;;;;;;;7.38;4.63;;;;;;;3.40;100.00;96768.09;4827710;29;20045;-52
2021/12/13 06:08:13;;;;;;;6.82;4.95;;;;;;;3.36;100.00;96769.69;4842007;29;20048;-49
2021/12/13 06:10:48;;;;;;;7.57;4.43;;;;;;;3.34;100.00;96766.47;4840629;29;20054;-49
2021/12/13 06:13:43;;;;;;;7.50;4.97;;;;;;;3.27;100.00;96756.84;4838364;29;20045;-52
2021/12/13 06:16:18;;;;;;;8.50;5.13;;;;;;;3.26;100.00;96759.78;4836797;29;20046;-49
2021/12/13 06:19:11;;;;;;;9.43;5.40;;;;;;;3.28;100.00;96757.63;4842346;29;20058;-50
2021/12/13 06:21:51;;;;;;;9.53;5.20;;;;;;;3.69;100.00;96753.13;4839219;29;20042;-51
2021/12/13 06:24:30;;;;;;;7.32;5.28;;;;;;;3.35;100.00;96765.41;4836292;29;20043;-48
2021/12/13 06:27:20;;;;;;;8.13;4.80;;;;;;;3.60;100.00;96775.34;4837139;29;20050;-50
2021/12/13 06:29:51;;;;;;;7.45;5.07;;;;;;;3.62;100.00;96778.56;4839376;29;20424;-51
2021/12/13 06:32:27;;;;;;;7.97;4.53;;;;;;;3.62;100.00;96794.63;4832749;29;20042;-52
2021/12/13 06:34:54;;;;;;;7.55;5.10;;;;;;;3.55;100.00;96786.84;4823744;29;20057;-48
2021/12/13 06:37:27;;;;;;;6.97;4.75;;;;;;;3.58;100.00;96791.66;4838294;29;20141;-53
2021/12/13 06:40:18;;;;;;;8.98;5.78;;;;;;;3.43;100.00;96786.28;4839015;29;20440;-51
2021/12/13 06:42:45;;;;;;;11.32;7.25;;;;;;;3.84;100.00;96787.13;4836345;29;20082;-52
2021/12/13 06:45:27;;;;;;;10.70;5.68;;;;;;;3.70;100.00;96792.19;4840930;29;20583;-50
2021/12/13 06:47:56;;;;;;;7.47;5.00;;;;;;;3.48;100.00;96797.81;4836695;29;20136;-49
2021/12/13 06:50:33;;;;;;;8.88;6.03;;;;;;;3.51;100.00;96799.16;4840507;29;20046;-54
2021/12/13 06:53:16;;;;;;;9.27;6.07;;;;;;;3.49;100.00;96802.09;4835543;29;20046;-52
2021/12/13 06:55:45;;;;;;;10.50;6.05;;;;;;;3.36;100.00;96796.44;4836320;29;20137;-51
2021/12/13 06:58:22;;;;;;;10.00;6.40;;;;;;;3.53;100.00;96804.22;4840090;29;20042;-51
2021/12/13 07:00:52;;;;;;;13.45;6.40;;;;;;;3.59;100.00;96811.19;4839295;29;20042;-55
2021/12/13 07:03:23;;;;;;;11.73;6.75;;;;;;;3.72;100.00;96808.00;4837424;29;20110;-53
2021/12/13 07:05:58;;;;;;;14.27;7.55;;;;;;;3.65;100.00;96810.13;4833285;29;20133;-53
2021/12/13 07:08:47;;;;;;;12.13;7.32;;;;;;;3.63;100.00;96814.94;4839300;29;20046;-50
2021/12/13 07:11:17;;;;;;;13.38;7.53;;;;;;;3.67;100.00;96816.00;4840154;29;20568;-49
2021/12/13 07:14:00;;;;;;;13.68;8.13;;;;;;;3.45;100.00;96824.28;4837400;29;20060;-49
2021/12/13 07:16:35;;;;;;;13.55;7.95;;;;;;;3.46;100.00;96832.03;4837889;29;20468;-50
2021/12/13 07:19:19;;;;;;;14.98;9.02;;;;;;;3.51;100.00;96831.28;4838973;29;20330;-49
2021/12/13 07:21:57;;;;;;;14.32;8.57;;;;;;;3.61;100.00;96836.63;4828621;29;20087;-55
2021/12/13 07:24:43;;;;;;;18.63;9.20;;;;;;;3.59;100.00;96827.25;4839155;29;20052;-54
2021/12/13 07:27:18;;;;;;;17.23;10.07;;;;;;;3.39;100.00;96833.38;4835704;29;20049;-52
2021/12/13 07:29:48;;;;;;;14.52;8.95;;;;;;;3.68;100.00;96842.53;4840209;29;20049;-48
2021/12/13 07:32:54;;;;;;;17.35;9.90;;;;;;;3.75;100.00;96848.41;4840663;29;20041;-50
2021/12/13 07:35:29;;;;;;;14.55;8.88;;;;;;;3.72;100.00;96848.94;4838255;29;20076;-53
2021/12/13 07:38:10;;;;;;;13.57;8.13;;;;;;;3.61;100.00;96851.88;4840962;29;20054;-53
2021/12/13 07:40:43;;;;;;;12.45;7.28;;;;;;;3.58;100.00;96850.53;4839447;29;20136;-51
2021/12/13 07:43:26;;;;;;;10.90;7.35;;;;;;;3.64;100.00;96848.66;4839353;29;20053;-53
2021/12/13 07:46:05;;;;;;;10.80;6.82;;;;;;;3.30;100.00;96846.44;4833725;29;20053;-51
2021/12/13 07:48:49;;;;;;;11.75;6.97;;;;;;;3.50;100.00;96859.88;4839572;29;20077;-55
2021/12/13 07:51:25;;;;;;;11.43;7.70;;;;;;;3.62;100.00;96853.50;4837702;29;20050;-49
2021/12/13 07:54:01;;;;;;;13.30;6.32;;;;;;;3.77;100.00;96856.19;4834179;29;20507;-51
2021/12/13 07:56:28;;;;;;;9.68;6.50;;;;;;;3.84;100.00;96855.94;4831513;29;20467;-48
2021/12/13 07:59:08;;;;;;;12.98;6.55;;;;;;;3.58;100.00;96858.56;4837048;29;20128;-50
2021/12/13 08:01:57;;;;;;;10.88;6.90;;;;;;;3.72;100.00;96858.84;4834236;29;20050;-45
2021/12/13 08:04:33;;;;;;;10.88;6.68;;;;;;;3.71;100.00;96860.72;4843835;29;20129;-48
2021/12/13 08:07:14;;;;;;;11.38;6.45;;;;;;;3.93;100.00;96865.03;4843024;29;20121;-48
2021/12/13 08:09:54;;;;;;;10.80;6.25;;;;;;;3.82;100.00;96861.53;4844238;29;20062;-47
2021/12/13 08:12:27;;;;;;;10.80;6.40;;;;;;;3.92;100.00;96864.22;4842429;29;20518;-49
2021/12/13 08:15:07;;;;;;;11.52;6.18;;;;;;;3.99;100.00;96869.31;4841017;29;20489;-49
2021/12/13 08:17:45;;;;;;;9.85;6.60;;;;;;;4.07;100.00;96865.31;4840857;29;20144;-50
2021/12/13 08:20:20;;;;;;;9.15;5.82;;;;;;;3.63;100.00;96861.25;4843253;29;20476;-50
2021/12/13 08:22:50;;;;;;;9.85;6.35;;;;;;;3.59;100.00;96870.88;4844666;29;20046;-50
2021/12/13 08:25:22;;;;;;;9.55;6.07;;;;;;;3.39;100.00;96871.63;4843433;29;20431;-54
2021/12/13 08:27:57;;;;;;;8.85;5.80;;;;;;;3.40;100.00;96873.22;4826163;29;20060;-47
2021/12/13 08:30:28;;;;;;;26.23;16.98;;;;;;;3.74;100.00;96878.13;4842413;29;20044;-48
2021/12/13 08:33:07;;;;;;;9.98;6.47;;;;;;;3.84;100.00;96864.75;4842316;29;20117;-48
2021/12/13 08:36:03;;;;;;;9.10;6.22;;;;;;;3.99;100.00;96872.78;4833109;29;20050;-49
2021/12/13 08:38:48;;;;;;;10.63;6.03;;;;;;;4.03;100.00;96874.94;4842906;29;20121;-48
2021/12/13 08:41:18;;;;;;;8.95;5.50;;;;;;;3.66;100.00;96882.13;4843834;29;20400;-49
2021/12/13 08:43:51;;;;;;;8.77;5.78;;;;;;;3.80;100.00;96877.06;4839172;29;20050;-45
2021/12/13 08:46:36;;;;;;;8.57;5.78;;;;;;;3.58;100.00;96879.97;4837546;29;20061;-48
2021/12/13 08:49:18;;;;;;;8.60;5.18;;;;;;;3.43;100.00;96886.06;4839885;29;20080;-48
2021/12/13 08:51:58;;;;;;;10.02;5.25;;;;;;;3.68;100.00;96884.56;4839454;29;20129;-49
2021/12/13 08:54:49;;;;;;;10.68;6.30;;;;;;;4.39;100.00;96883.81;4843697;29;20161;-47
2021/12/13 08:57:34;;;;;;;10.10;5.45;;;;;;;3.63;100.00;96892.56;4849123;29;20081;-46
2021/12/13 09:00:19;;;;;;;8.82;5.30;;;;;;;4.08;100.00;96888.34;4844792;29;20075;-48
2021/12/13 09:02:59;;;;;;;9.40;5.90;;;;;;;3.93;100.00;96895.31;4836805;29;20058;-46
2021/12/13 09:05:36;;;;;;;8.70;5.75;;;;;;;4.32;100.00;96896.66;4841863;29;20137;-46
2021/12/13 09:08:14;;;;;;;8.95;5.50;;;;;;;4.11;100.00;96893.97;4840171;29;20053;-48
2021/12/13 09:10:48;;;;;;;11.23;6.20;;;;;;;3.97;100.00;96893.69;4844336;29;20053;-48
2021/12/13 09:13:18;;;;;;;8.80;5.88;;;;;;;4.01;100.00;96893.97;4844758;29;20248;-46
2021/12/13 09:15:48;;;;;;;10.52;5.28;;;;;;;4.18;100.00;96893.72;4822585;29;20110;-49
2021/12/13 09:18:22;;;;;;;8.35;5.40;;;;;;;4.51;100.00;96886.19;4831765;29;20118;-45
2021/12/13 09:20:53;;;;;;;9.85;5.35;;;;;;;4.51;100.00;96891.56;4838277;29;20416;-51
2021/12/13 09:23:38;;;;;;;9.93;5.70;;;;;;;4.44;100.00;96881.91;4840812;29;20450;-53
2021/12/13 09:26:15;;;;;;;8.50;5.13;;;;;;;4.44;100.00;96887.25;4844098;29;20077;-51
2021/12/13 09:29:01;;;;;;;9.70;5.70;;;;;;;4.41;100.00;96897.72;4852546;29;20061;-50
2021/12/13 09:31:34;;;;;;;8.23;5.63;;;;;;;4.45;100.00;96888.88;4841453;29;20368;-50
2021/12/13 09:34:19;;;;;;;11.02;6.28;;;;;;;4.53;100.00;96889.41;4839561;29;20131;-46
2021/12/13 09:36:50;;;;;;;8.35;5.70;;;;;;;4.39;100.00;96892.66;4838573;29;20082;-52
2021/12/13 09:39:23;;;;;;;8.43;5.57;;;;;;;4.68;100.00;96887.53;4841127;29;20125;-53
2021/12/13 09:42:01;;;;;;;8.18;5.05;;;;;;;4.34;100.00;96887.28;4835789;29;20146;-46
2021/12/13 09:44:48;;;;;;;7.35;4.85;;;;;;;4.51;100.00;96887.00;4840327;29;20152;-47
2021/12/13 09:47:23;;;;;;;9.13;4.75;;;;;;;4.74;100.00;96890.97;4834218;29;20041;-50
2021/12/13 09:49:56;;;;;;;9.77;5.72;;;;;;;4.39;100.00;96884.59;4838862;29;20089;-52
2021/12/13 09:52:31;;;;;;;9.27;5.50;;;;;;;4.99;100.00;96892.81;4841306;29;20542;-52
2021/12/13 09:55:04;;;;;;;9.25;5.45;;;;;;;4.40;100.00;96888.09;4829031;29;20050;-51
2021/12/13 09:57:35;;;;;;;7.75;5.00;;;;;;;4.78;100.00;96883.22;4833721;29;20053;-53
2021/12/13 10:00:26;;;;;;;7.70;4.53;;;;;;;4.53;100.00;96878.69;4840818;29;20431;-52
2021/12/13 10:03:01;;;;;;;7.60;4.70;;;;;;;4.62;100.00;96882.44;4834984;29;20102;-49
2021/12/13 10:05:35;;;;;;;7.30;4.47;;;;;;;4.76;100.00;96882.69;4836496;29;20045;-49
2021/12/13 10:08:27;;;;;;;7.90;4.88;;;;;;;4.76;100.00;96878.13;4835474;29;20569;-47
2021/12/13 10:11:04;;;;;;;7.80;5.10;;;;;;;4.49;100.00;96872.28;4841524;29;20043;-47
2021/12/13 10:13:36;;;;;;;7.88;4.43;;;;;;;4.19;100.00;96877.38;4832246;29;20616;-49
2021/12/13 10:16:26;;;;;;;6.28;3.83;;;;;;;3.94;100.00;96874.69;4844410;29;20072;-47
2021/12/13 10:18:54;;;;;;;6.35;4.45;;;;;;;4.06;100.00;96869.06;4849688;29;20077;-48
2021/12/13 10:21:26;;;;;;;7.15;4.55;;;;;;;4.20;100.00;96865.59;4836135;29;20053;-49
2021/12/13 10:23:58;;;;;;;9.35;5.32;;;;;;;4.41;100.00;96866.38;4835642;29;20042;-48
2021/12/13 10:26:35;;;;;;;11.52;5.05;;;;;;;4.55;100.00;96861.28;4829686;29;20084;-48
2021/12/13 10:29:06;;;;;;;7.55;5.18;;;;;;;4.46;100.00;96854.84;4835989;29;20065;-49
2021/12/13 10:31:38;;;;;;;8.75;5.25;;;;;;;4.32;100.00;96853.78;4842267;29;20050;-52
2021/12/13 10:34:11;;;;;;;9.00;5.45;;;;;;;4.95;100.00;96848.84;4850206;29;20412;-49
2021/12/13 10:36:43;;;;;;;6.65;4.60;;;;;;;4.73;100.00;96851.84;4823221;29;20480;-46
2021/12/13 10:39:19;;;;;;;7.03;5.50;;;;;;;4.32;100.00;96854.59;4838325;29;20078;-50
2021/12/13 10:42:07;;;;;;;6.97;5.03;;;;;;;4.27;100.00;96849.25;4834568;29;20050;-48
2021/12/13 10:44:35;;;;;;;7.55;5.22;;;;;;;4.22;100.00;96846.56;4833000;29;20044;-49
2021/12/13 10:47:09;;;;;;;10.02;4.90;;;;;;;4.16;100.00;96845.78;4842243;29;20423;-52
2021/12/13 10:49:42;;;;;;;10.52;5.60;;;;;;;4.31;100.00;96846.81;4840768;29;20053;-51
2021/12/13 10:52:14;;;;;;;7.87;4.97;;;;;;;4.62;100.00;96850.28;4834617;29;20121;-49
2021/12/13 10:54:46;;;;;;;7.33;4.50;;;;;;;4.30;100.00;96846.03;4837650;29;20448;-49
2021/12/13 10:57:24;;;;;;;6.35;4.85;;;;;;;4.17;100.00;96846.56;4844503;29;20049;-50
2021/12/13 10:59:52;;;;;;;8.68;5.07;;;;;;;4.56;100.00;96844.13;4838477;29;20132;-49
2021/12/13 11:02:29;;;;;;;6.82;5.05;;;;;;;4.55;100.00;96852.41;4839588;29;20492;-48
2021/12/13 11:05:13;;;;;;;8.27;5.43;;;;;;;5.58;100.00;96846.41;4837180;29;20055;-52
2021/12/13 11:07:41;;;;;;;7.97;5.47;;;;;;;4.71;100.00;96848.63;4834559;29;20046;-51
2021/12/13 11:10:13;;;;;;;8.73;5.25;;;;;;;5.25;100.00;96842.53;4836807;29;20505;-47
2021/12/13 11:12:45;;;;;;;10.02;5.47;;;;;;;4.90;100.00;96833.56;4834177;29;20057;-50
2021/12/13 11:15:20;;;;;;;9.18;5.35;;;;;;;4.83;100.00;96846.47;4839630;29;20497;-51
2021/12/13 11:17:48;;;;;;;7.90;5.57;;;;;;;4.52;100.00;96840.38;4836871;29;20080;-52
2021/12/13 11:20:27;;;;;;;6.95;4.88;;;;;;;4.54;100.00;96842.78;4840703;29;20446;-46
2021/12/13 11:22:55;;;;;;;7.13;4.30;;;;;;;4.31;100.00;96839.59;4822820;29;20083;-48
2021/12/13 11:25:27;;;;;;;8.07;5.05;;;;;;;4.45;100.00;96835.31;4832320;29;20047;-50
2021/12/13 11:27:55;;;;;;;6.85;4.68;;;;;;;4.58;100.00;96833.09;4807372;29;20109;-50
2021/12/13 11:30:27;;;;;;;13.15;5.35;;;;;;;5.00;100.00;96824.66;4838420;29;20509;-45
2021/12/13 11:32:57;;;;;;;7.40;4.80;;;;;;;5.68;100.00;96824.06;4835317;29;20056;-47
2021/12/13 11:35:27;;;;;;;11.23;4.57;;;;;;;4.99;100.00;96820.41;4832963;29;20104;-49
2021/12/13 11:38:05;;;;;;;6.60;4.28;;;;;;;4.99;100.00;96816.91;4835650;29;20042;-46
2021/12/13 11:40:41;;;;;;;7.93;4.18;;;;;;;5.23;100.00;96817.88;4834999;29;20132;-51
2021/12/13 11:43:39;;;;;;;7.75;3.90;;;;;;;4.68;100.00;96820.50;4833179;29;20072;-50
2021/12/13 11:46:06;;;;;;;6.60;3.80;;;;;;;4.36;100.00;96818.16;4837887;29;20140;-49
2021/12/13 11:49:10;;;;;;;8.40;4.40;;;;;;;4.54;100.00;96810.63;4829110;29;20038;-48
2021/12/13 11:52:12;;;;;;;10.10;4.28;;;;;;;4.55;100.00;96813.03;4836780;29;20046;-49
2021/12/13 11:55:16;;;;;;;7.65;3.95;;;;;;;4.95;100.00;96811.31;4833373;29;20056;-54
2021/12/13 11:58:01;;;;;;;;;;;;;;;5.17;100.00;96808.25;4838547;29;20046;-54
2021/12/13 12:00:42;;;;;;;6.35;3.67;;;;;;;4.48;100.00;96801.78;4835969;29;19935;-54
2021/12/13 12:03:30;;;;;;;6.60;3.58;;;;;;;4.57;100.00;96804.72;4826713;29;20169;-51
2021/12/13 12:06:16;;;;;;;6.70;3.90;;;;;;;4.56;100.00;96795.88;4833916;29;20046;-50
2021/12/13 12:09:20;;;;;;;6.65;4.03;;;;;;;5.00;100.00;96791.69;4835902;29;20046;-53
2021/12/13 12:12:24;;;;;;;7.40;4.60;;;;;;;5.46;100.00;96786.06;4836784;29;20054;-49
2021/12/13 12:14:59;;;;;;;;;;;;;;;5.44;100.00;96780.19;4836903;29;20042;-50
2021/12/13 12:17:28;;;;;;;10.00;5.72;;;;;;;4.75;100.00;96785.38;4845751;29;19932;-49
2021/12/13 12:19:56;;;;;;;9.70;5.72;;;;;;;4.99;100.00;96779.38;4829494;29;20047;-50
2021/12/13 12:22:31;;;;;;;9.77;6.30;;;;;;;5.23;100.00;96780.34;4833956;29;20081;-52